Time;durP1;ratioP1;P1;durP2;ratioP2;P2;SDS_P1;SDS_P2;PMS_P1;PMS_P2;Temp;Humidity;BMP_temperature;BMP_pressure;BME280_temperature;BME280_humidity;BME280_pressure;Samples;Min_cycle;Max_cycle;Signal;HPM_P1;HPM_P2
2022/04/13 04:05:51;;;;;;;15.98;9.02;;;;;;;7.32;63.19;101128.41;5606214;31;77545;-57
2022/04/13 04:08:53;;;;;;;14.18;9.00;;;;;;;7.32;63.19;101128.41;5583523;31;34117;-57
2022/04/13 04:11:55;;;;;;;14.05;9.50;;;;;;;6.86;63.95;101141.72;5583394;32;33620;-57
2022/04/13 04:15:00;;;;;;;17.48;9.35;;;;;;;6.80;63.47;101150.66;5588585;31;34243;-57
2022/04/13 04:18:03;;;;;;;16.00;9.40;;;;;;;6.94;62.49;101148.53;5601835;31;33554;-57
2022/04/13 04:21:06;;;;;;;13.02;8.85;;;;;;;6.99;62.94;101154.78;5602266;31;33592;-57
2022/04/13 04:24:08;;;;;;;11.55;8.70;;;;;;;6.95;62.64;101155.47;5602341;31;33603;-57
2022/04/13 04:27:10;;;;;;;14.50;9.07;;;;;;;6.98;62.60;101147.00;5599749;31;34273;-57
2022/04/13 04:30:12;;;;;;;15.48;9.27;;;;;;;6.95;63.00;101153.59;5583174;31;33608;-57
2022/04/13 04:33:16;;;;;;;16.95;8.88;;;;;;;6.99;63.23;101152.09;5581889;32;33276;-57
2022/04/13 04:36:18;;;;;;;16.25;9.57;;;;;;;6.94;63.32;101156.50;5583440;32;33675;-57
2022/04/13 04:39:20;;;;;;;14.98;8.32;;;;;;;7.07;63.39;101166.91;5598734;31;33605;-57
2022/04/13 04:42:22;;;;;;;15.65;9.75;;;;;;;7.12;62.61;101172.34;5594300;31;33603;-57
2022/04/13 04:45:25;;;;;;;16.05;9.55;;;;;;;7.28;62.16;101166.25;5594547;31;34250;-57
2022/04/13 04:48:27;;;;;;;14.48;9.48;;;;;;;7.23;62.96;101171.47;5583532;31;34419;-57
2022/04/13 04:51:31;;;;;;;15.70;9.48;;;;;;;7.35;62.49;101166.09;5580638;32;33264;-57
2022/04/13 04:54:33;;;;;;;17.85;10.02;;;;;;;7.43;62.21;101168.38;5591698;31;33641;-57
2022/04/13 04:57:37;;;;;;;18.08;10.00;;;;;;;7.51;62.37;101175.97;5599152;31;33662;-57
2022/04/13 05:00:39;;;;;;;17.92;11.07;;;;;;;7.59;61.27;101171.31;5582712;32;33761;-57
2022/04/13 05:03:43;;;;;;;17.35;9.60;;;;;;;7.79;61.34;101170.84;5581780;31;34349;-57
2022/04/13 05:06:45;;;;;;;16.40;10.55;;;;;;;8.00;60.29;101178.12;5599458;31;33675;-57
2022/04/13 05:09:48;;;;;;;16.58;9.20;;;;;;;8.07;59.51;101176.09;5584221;31;34256;-57
2022/04/13 05:12:53;;;;;;;15.40;9.45;;;;;;;8.19;59.53;101187.50;5597771;31;34209;-57
2022/04/13 05:15:56;;;;;;;13.93;9.52;;;;;;;8.30;59.51;101193.00;5574711;31;33594;-57
2022/04/13 05:18:58;;;;;;;14.07;10.15;;;;;;;8.64;54.60;101180.41;5571653;31;33592;-58
2022/04/13 05:22:01;;;;;;;17.15;10.18;;;;;;;8.83;57.12;101188.94;5572490;31;33609;-57
2022/04/13 05:25:09;;;;;;;15.45;10.30;;;;;;;9.12;53.03;101189.56;5558929;31;33650;-57
2022/04/13 05:28:12;;;;;;;13.52;9.30;;;;;;;9.16;53.45;101201.38;5564514;31;33712;-57
2022/04/13 05:31:14;;;;;;;13.57;10.00;;;;;;;9.33;52.18;101194.06;5564290;31;34206;-57
2022/04/13 05:34:16;;;;;;;17.48;10.50;;;;;;;9.54;50.41;101197.75;5567547;32;34247;-57
2022/04/13 05:37:19;;;;;;;13.75;9.57;;;;;;;9.72;52.40;101201.94;5568270;32;33353;-57
2022/04/13 05:40:23;;;;;;;14.23;10.15;;;;;;;9.79;51.79;101213.25;5570954;31;34344;-57
2022/04/13 05:43:28;;;;;;;13.52;9.93;;;;;;;9.81;49.82;101216.50;5573743;31;33712;-57
2022/04/13 05:46:33;;;;;;;18.15;10.15;;;;;;;9.84;48.90;101212.50;5568536;32;34317;-57
2022/04/13 05:49:35;;;;;;;16.10;10.77;;;;;;;9.86;48.45;101221.06;5569164;31;33791;-57
2022/04/13 05:52:39;;;;;;;16.23;10.45;;;;;;;9.92;49.40;101220.06;5568573;31;33234;-57
2022/04/13 05:55:41;;;;;;;15.98;9.73;;;;;;;10.00;50.23;101216.91;5568454;31;33769;-58
2022/04/13 05:58:43;;;;;;;14.87;9.93;;;;;;;10.07;49.26;101216.72;5584666;31;33618;-57
2022/04/13 06:01:46;;;;;;;14.65;10.07;;;;;;;10.39;46.81;101213.19;5567801;32;34249;-57
2022/04/13 06:04:48;;;;;;;13.05;9.25;;;;;;;10.63;44.38;101221.66;5566953;31;33945;-57
2022/04/13 06:07:53;;;;;;;14.07;9.98;;;;;;;10.80;44.81;101228.47;5564141;32;32724;-57
2022/04/13 06:10:56;;;;;;;12.75;9.75;;;;;;;10.92;44.16;101224.75;5569659;31;33818;-57
2022/04/13 06:13:58;;;;;;;15.48;9.65;;;;;;;10.85;43.33;101230.34;5557695;31;34299;-57
2022/04/13 06:17:01;;;;;;;15.10;10.23;;;;;;;11.04;43.83;101233.41;5549767;32;34370;-57
2022/04/13 06:20:05;;;;;;;13.10;9.90;;;;;;;11.13;44.25;101237.19;5565741;31;33801;-57
2022/04/13 06:23:08;;;;;;;16.52;10.65;;;;;;;11.19;44.17;101240.69;5562382;32;33810;-57
2022/04/13 06:26:10;;;;;;;26.00;9.90;;;;;;;11.06;43.72;101242.00;5551811;31;34947;-57
2022/04/13 06:29:13;;;;;;;16.67;10.52;;;;;;;11.03;43.64;101234.47;5568132;32;33588;-57
2022/04/13 06:32:15;;;;;;;20.48;10.82;;;;;;;11.12;43.72;101251.66;5558515;32;33672;-57
2022/04/13 06:35:18;;;;;;;14.90;10.05;;;;;;;11.22;43.37;101250.91;5556815;31;33549;-57
2022/04/13 06:38:20;;;;;;;13.23;10.20;;;;;;;11.31;42.23;101243.97;5567647;31;34246;-57
2022/04/13 06:41:22;;;;;;;17.17;11.15;;;;;;;11.33;42.40;101251.75;5566973;32;34338;-57
2022/04/13 06:44:26;;;;;;;16.15;10.90;;;;;;;11.41;43.46;101253.91;5568071;31;33333;-57
2022/04/13 06:47:30;;;;;;;16.40;10.60;;;;;;;11.44;41.95;101261.44;5567794;32;33201;-57
2022/04/13 06:50:34;;;;;;;16.80;10.32;;;;;;;11.61;42.31;101245.91;5566470;32;34381;-57
2022/04/13 06:53:40;;;;;;;22.98;11.32;;;;;;;11.50;41.45;101258.50;5570973;31;33599;-57
2022/04/13 06:56:42;;;;;;;17.95;11.43;;;;;;;11.45;41.99;101253.13;5577246;31;33694;-57
2022/04/13 06:59:44;;;;;;;16.30;11.10;;;;;;;11.63;42.73;101249.16;5551792;31;34316;-57
2022/04/13 07:02:47;;;;;;;15.88;10.95;;;;;;;11.71;42.03;101258.56;5547845;32;33327;-57
2022/04/13 07:06:11;;;;;;;20.12;11.38;;;;;;;11.61;42.18;101250.47;5562932;31;33759;-57
2022/04/13 07:09:35;;;;;;;17.12;10.07;;;;;;;11.55;42.29;101252.34;5563429;31;33748;-57
2022/04/13 07:12:39;;;;;;;14.45;10.38;;;;;;;11.77;40.92;101254.81;5565767;32;34469;-57
2022/04/13 07:15:41;;;;;;;17.98;10.38;;;;;;;11.92;41.35;101251.34;5578105;31;33832;-57
2022/04/13 07:18:44;;;;;;;16.23;10.10;;;;;;;11.87;41.73;101251.38;5567950;31;33735;-57
2022/04/13 07:21:51;;;;;;;19.67;9.95;;;;;;;11.98;41.07;101255.66;5567353;32;33726;-57
2022/04/13 07:25:00;;;;;;;18.50;9.30;;;;;;;12.09;40.79;101262.66;5570683;31;34064;-57
2022/04/13 07:28:02;;;;;;;14.70;8.45;;;;;;;12.16;40.58;101262.41;5577806;31;34308;-57
2022/04/13 07:31:05;;;;;;;16.35;10.23;;;;;;;12.25;41.31;101262.66;5571166;31;33711;-57
2022/04/13 07:34:07;;;;;;;14.05;9.80;;;;;;;12.29;40.28;101264.56;5576612;31;33582;-57
2022/04/13 07:37:10;;;;;;;21.95;9.77;;;;;;;12.38;40.73;101267.47;5573061;31;34232;-57
2022/04/13 07:40:14;;;;;;;14.48;9.77;;;;;;;12.43;40.21;101262.09;5570020;31;33669;-57
2022/04/13 07:43:16;;;;;;;12.55;8.88;;;;;;;12.41;40.06;101258.88;5561241;31;34287;-57
2022/04/13 07:46:19;;;;;;;10.50;8.30;;;;;;;12.46;38.02;101267.75;5565500;32;33248;-57
2022/04/13 07:49:23;;;;;;;19.70;9.50;;;;;;;12.50;38.19;101262.62;5567653;31;33259;-57
2022/04/13 07:52:25;;;;;;;12.70;8.40;;;;;;;12.64;38.51;101261.00;5567211;32;34293;-57
2022/04/13 07:55:28;;;;;;;14.80;8.20;;;;;;;12.76;37.04;101265.28;5548156;32;31793;-57
2022/04/13 07:58:30;;;;;;;11.95;7.82;;;;;;;12.84;38.02;101260.13;5547887;32;33573;-57
2022/04/13 08:01:32;;;;;;;11.43;7.87;;;;;;;12.92;37.01;101261.47;5570488;31;33391;-57
2022/04/13 08:04:35;;;;;;;12.82;8.48;;;;;;;13.02;37.63;101264.13;5551408;32;33811;-57
2022/04/13 08:07:39;;;;;;;16.35;7.32;;;;;;;13.10;36.82;101258.16;5546906;32;33613;-58
2022/04/13 08:10:41;;;;;;;10.82;6.45;;;;;;;13.24;36.82;101265.66;5563737;31;34364;-57
2022/04/13 08:13:43;;;;;;;10.70;6.93;;;;;;;13.11;37.48;101262.50;5587069;31;33157;-57
2022/04/13 08:16:51;;;;;;;10.15;6.03;;;;;;;13.22;37.38;101265.94;5581386;31;33765;-57
2022/04/13 08:19:54;;;;;;;12.63;6.10;;;;;;;13.24;34.76;101263.78;5550341;31;34290;-57
2022/04/13 08:22:57;;;;;;;11.57;6.62;;;;;;;13.31;35.51;101272.41;5567306;32;33567;-57
2022/04/13 08:25:59;;;;;;;12.60;6.55;;;;;;;13.48;35.21;101263.16;5564561;32;33228;-57
2022/04/13 08:29:03;;;;;;;8.52;6.28;;;;;;;13.50;35.37;101269.06;5567058;31;33633;-57
2022/04/13 08:32:05;;;;;;;7.90;5.80;;;;;;;13.54;34.37;101270.09;5586418;31;34306;-57
2022/04/13 08:35:10;;;;;;;10.45;5.43;;;;;;;13.57;34.47;101270.34;5586472;31;33912;-57
2022/04/13 08:38:12;;;;;;;7.28;5.80;;;;;;;13.65;36.01;101268.97;5581399;31;34314;-57
2022/04/13 08:41:40;;;;;;;9.63;5.45;;;;;;;13.81;33.50;101267.81;5566287;31;34350;-57
2022/04/13 08:44:50;;;;;;;7.78;5.03;;;;;;;13.73;33.13;101267.56;5567781;31;34251;-57
2022/04/13 08:47:56;;;;;;;8.50;5.20;;;;;;;13.69;35.17;101253.06;5572852;31;33909;-57
2022/04/13 08:51:02;;;;;;;9.52;6.18;;;;;;;13.74;35.14;101261.91;5565676;32;34292;-57
2022/04/13 08:54:18;;;;;;;8.60;6.10;;;;;;;13.99;34.94;101260.91;5564946;31;33745;-57
2022/04/13 08:57:22;;;;;;;9.55;6.20;;;;;;;14.06;35.05;101263.28;5555185;32;34269;-57
2022/04/13 09:00:27;;;;;;;8.85;6.32;;;;;;;14.12;33.51;101253.28;5568676;32;33682;-57
2022/04/13 09:03:47;;;;;;;9.60;5.68;;;;;;;14.23;33.54;101255.59;5568783;32;34393;-57
2022/04/13 09:06:50;;;;;;;15.70;6.85;;;;;;;14.20;35.19;101263.44;5568546;32;34347;-57
2022/04/13 09:09:54;;;;;;;9.48;6.70;;;;;;;14.37;34.37;101263.03;5568311;32;33619;-57
2022/04/13 09:12:58;;;;;;;11.35;7.20;;;;;;;14.44;33.53;101258.13;5568898;32;33353;-57
2022/04/13 09:16:03;;;;;;;12.15;8.15;;;;;;;14.39;37.95;101255.47;5567945;32;33858;-57
2022/04/13 09:19:05;;;;;;;9.77;7.00;;;;;;;14.32;35.60;101253.09;5574265;31;34423;-58
2022/04/13 09:22:09;;;;;;;8.80;6.72;;;;;;;14.45;35.84;101252.44;5565355;31;33654;-57
2022/04/13 09:25:12;;;;;;;10.80;6.82;;;;;;;14.48;35.39;101254.56;5567755;32;34146;-58
2022/04/13 09:28:14;;;;;;;9.05;6.62;;;;;;;14.49;36.22;101245.38;5562434;32;34387;-58
2022/04/13 09:31:16;;;;;;;9.68;7.07;;;;;;;14.49;34.26;101248.06;5567510;31;34405;-57
2022/04/13 09:34:19;;;;;;;10.77;6.20;;;;;;;14.68;32.11;101239.28;5568075;31;33608;-58
2022/04/13 09:37:22;;;;;;;8.07;5.72;;;;;;;14.63;34.35;101250.94;5559285;32;33714;-58
2022/04/13 09:40:27;;;;;;;9.73;7.05;;;;;;;14.73;39.87;101240.03;5560689;31;34365;-57
2022/04/13 09:43:29;;;;;;;9.93;7.05;;;;;;;14.77;35.47;101237.59;5566477;31;33373;-58
2022/04/13 09:46:31;;;;;;;11.57;7.50;;;;;;;14.89;34.15;101235.25;5568570;32;33254;-57
2022/04/13 09:49:34;;;;;;;9.45;7.35;;;;;;;14.84;33.45;101232.63;5571006;31;33754;-57
2022/04/13 09:52:41;;;;;;;13.32;6.90;;;;;;;14.79;34.53;101235.38;5566156;31;33597;-57
2022/04/13 09:55:49;;;;;;;11.88;5.50;;;;;;;14.73;33.44;101225.72;5568458;32;33744;-57
2022/04/13 09:58:52;;;;;;;9.73;6.85;;;;;;;14.76;38.73;101225.16;5568884;31;33628;-58
2022/04/13 10:01:55;;;;;;;9.02;6.55;;;;;;;14.90;33.42;101236.06;5556122;31;33991;-58
2022/04/13 10:04:57;;;;;;;8.23;6.20;;;;;;;14.97;32.30;101229.25;5568424;32;34267;-57
2022/04/13 10:08:03;;;;;;;9.48;6.22;;;;;;;14.92;34.10;101232.00;5563921;31;33620;-58
2022/04/13 10:11:08;;;;;;;8.80;6.22;;;;;;;15.04;34.35;101227.00;5585610;31;33237;-58
2022/04/13 10:14:10;;;;;;;9.75;6.22;;;;;;;15.09;32.37;101222.59;5588045;31;33742;-58
2022/04/13 10:17:13;;;;;;;11.98;7.12;;;;;;;15.06;36.35;101228.59;5564812;31;33658;-57
2022/04/13 10:20:15;;;;;;;10.10;7.20;;;;;;;15.20;33.55;101224.09;5569018;31;33753;-58
2022/04/13 10:23:18;;;;;;;10.85;6.47;;;;;;;15.16;33.09;101220.34;5566758;32;33920;-57
2022/04/13 10:26:20;;;;;;;15.75;7.47;;;;;;;15.13;33.47;101220.94;5568111;31;33756;-58
2022/04/13 10:29:26;;;;;;;11.60;6.62;;;;;;;15.11;33.67;101213.13;5568084;32;33690;-57
2022/04/13 10:32:28;;;;;;;15.55;7.80;;;;;;;15.14;34.76;101206.34;5568088;31;33785;-58
2022/04/13 10:35:34;;;;;;;8.85;6.45;;;;;;;15.32;31.93;101205.56;5568416;31;33863;-58
2022/04/13 10:38:36;;;;;;;10.85;6.57;;;;;;;15.35;33.17;101196.06;5560314;32;33897;-58
2022/04/13 10:41:39;;;;;;;14.87;6.87;;;;;;;15.43;35.21;101193.53;5563457;32;33681;-57
2022/04/13 10:44:42;;;;;;;10.73;7.12;;;;;;;15.56;32.89;101189.25;5568600;31;33614;-58
2022/04/13 10:47:58;;;;;;;12.32;7.78;;;;;;;15.66;31.97;101183.75;5568646;32;34301;-58
2022/04/13 10:51:11;;;;;;;11.32;6.07;;;;;;;15.60;31.87;101179.47;5567661;32;33408;-58
2022/04/13 10:54:15;;;;;;;11.07;7.72;;;;;;;15.55;39.41;101184.16;5566342;32;34338;-58
2022/04/13 10:57:21;;;;;;;11.12;6.97;;;;;;;15.62;34.43;101181.88;5568122;31;33315;-58
2022/04/13 11:00:25;;;;;;;9.20;5.80;;;;;;;15.71;33.67;101172.03;5573702;31;34433;-58
2022/04/13 11:03:32;;;;;;;12.75;7.55;;;;;;;15.82;41.29;101170.75;5587620;31;34367;-58
2022/04/13 11:06:35;;;;;;;13.57;7.95;;;;;;;15.85;33.04;101170.16;5570351;31;33639;-58
2022/04/13 11:09:41;;;;;;;10.57;7.80;;;;;;;15.76;33.03;101166.56;5566720;32;33869;-58
2022/04/13 11:12:46;;;;;;;10.57;6.85;;;;;;;15.78;33.07;101166.25;5550813;32;34595;-58
2022/04/13 11:15:53;;;;;;;11.05;7.72;;;;;;;15.77;35.63;101170.84;5572668;31;34270;-58
2022/04/13 11:19:02;;;;;;;11.63;7.60;;;;;;;15.89;34.00;101152.28;5586139;31;33739;-58
2022/04/13 11:22:04;;;;;;;10.27;7.65;;;;;;;16.00;33.23;101154.81;5571010;31;33691;-58
2022/04/13 11:25:07;;;;;;;12.23;7.93;;;;;;;15.88;32.73;101145.25;5565959;32;33435;-58
2022/04/13 11:28:09;;;;;;;11.60;7.55;;;;;;;15.83;33.76;101142.66;5567918;32;34349;-58
2022/04/13 11:31:13;;;;;;;10.85;7.72;;;;;;;15.79;33.63;101140.81;5568534;32;34354;-58
2022/04/13 11:34:15;;;;;;;12.20;7.95;;;;;;;15.93;34.13;101147.06;5568176;32;33792;-58
2022/04/13 11:37:19;;;;;;;13.80;8.32;;;;;;;15.93;33.17;101136.25;5568311;32;33867;-57
2022/04/13 11:40:22;;;;;;;12.40;8.48;;;;;;;15.93;33.77;101134.34;5568234;32;33297;-58
2022/04/13 11:43:25;;;;;;;10.93;7.18;;;;;;;16.04;33.24;101134.97;5568414;32;33681;-58
2022/04/13 11:46:42;;;;;;;11.45;7.75;;;;;;;16.11;32.92;101129.97;5568052;32;34298;-58
2022/04/13 11:50:02;;;;;;;12.70;7.87;;;;;;;16.04;32.10;101126.84;5577450;31;34062;-58
2022/04/13 11:53:14;;;;;;;12.10;7.97;;;;;;;16.12;33.92;101138.87;5568441;31;33446;-58
2022/04/13 11:56:50;;;;;;;12.48;8.38;;;;;;;16.21;31.00;101120.84;5561455;32;34559;-58
2022/04/13 11:59:52;;;;;;;13.02;8.30;;;;;;;16.17;31.67;101117.16;5567218;32;32217;-58
2022/04/13 12:02:54;;;;;;;12.90;8.43;;;;;;;16.24;32.71;101122.16;5566990;32;33697;-58
2022/04/13 12:06:01;;;;;;;13.05;9.52;;;;;;;16.26;31.61;101122.66;5563365;31;34307;-58
2022/04/13 12:09:04;;;;;;;16.05;8.68;;;;;;;16.11;31.06;101116.44;5567886;32;34841;-58
2022/04/13 12:12:13;;;;;;;11.50;8.25;;;;;;;16.06;31.35;101100.31;5567637;32;33638;-58
2022/04/13 12:15:15;;;;;;;13.60;8.95;;;;;;;16.14;31.13;101099.62;5567678;32;33834;-58
2022/04/13 12:18:24;;;;;;;13.02;8.45;;;;;;;16.30;31.03;101099.34;5567539;31;34337;-57
2022/04/13 12:21:29;;;;;;;14.20;8.30;;;;;;;16.24;32.49;101093.22;5567786;32;33735;-58
2022/04/13 12:24:31;;;;;;;17.30;7.97;;;;;;;16.25;30.93;101094.00;5567631;32;33667;-57
2022/04/13 12:27:34;;;;;;;14.75;8.80;;;;;;;16.32;31.10;101086.28;5568325;32;33279;-58
2022/04/13 12:30:36;;;;;;;11.98;7.70;;;;;;;16.34;34.90;101084.87;5573359;31;33739;-58
2022/04/13 12:33:41;;;;;;;12.68;8.40;;;;;;;16.34;34.16;101094.91;5578623;31;33644;-57
2022/04/13 12:37:03;;;;;;;13.55;7.90;;;;;;;16.29;29.67;101087.72;5579066;31;34290;-57
2022/04/13 12:40:26;;;;;;;11.82;8.15;;;;;;;16.35;31.14;101080.28;5569928;32;34339;-58
2022/04/13 12:43:29;;;;;;;12.75;8.40;;;;;;;16.46;31.17;101068.16;5586423;31;34242;-57
2022/04/13 12:46:32;;;;;;;16.55;9.60;;;;;;;16.42;32.11;101062.53;5589486;31;33792;-57
2022/04/13 12:49:38;;;;;;;11.27;8.50;;;;;;;16.48;31.48;101054.31;5589496;31;34459;-58
2022/04/13 12:52:42;;;;;;;14.02;9.35;;;;;;;16.41;33.06;101052.81;5589387;31;33928;-58
2022/04/13 12:55:52;;;;;;;14.77;9.57;;;;;;;16.48;33.39;101057.00;5577214;31;33779;-58
2022/04/13 12:58:56;;;;;;;14.00;9.18;;;;;;;16.50;32.50;101052.09;5569892;32;33818;-57
2022/04/13 13:01:58;;;;;;;16.15;9.00;;;;;;;16.51;31.06;101040.16;5561149;32;33774;-58
2022/04/13 13:05:04;;;;;;;13.65;10.25;;;;;;;16.48;32.13;101041.56;5550139;32;34196;-58
2022/04/13 13:08:07;;;;;;;14.87;9.68;;;;;;;16.49;31.13;101037.78;5550189;32;34405;-58
2022/04/13 13:11:12;;;;;;;12.00;8.35;;;;;;;16.54;30.96;101032.25;5571957;31;34230;-58
2022/04/13 13:14:15;;;;;;;12.93;8.60;;;;;;;16.52;34.42;101034.44;5587911;31;33657;-58
2022/04/13 13:17:31;;;;;;;16.60;9.02;;;;;;;16.47;30.80;101029.16;5570894;31;33217;-58
2022/04/13 13:20:35;;;;;;;14.43;8.82;;;;;;;16.48;30.33;101028.03;5569955;32;34442;-58
2022/04/13 13:23:47;;;;;;;15.80;9.07;;;;;;;16.53;30.49;101022.53;5569608;32;34228;-58
2022/04/13 13:26:50;;;;;;;13.30;9.23;;;;;;;16.51;35.72;101026.63;5566908;32;33792;-58
2022/04/13 13:29:54;;;;;;;14.43;9.90;;;;;;;16.61;32.48;101027.22;5566211;31;33686;-57
2022/04/13 13:32:57;;;;;;;18.30;9.55;;;;;;;16.60;32.83;101022.91;5585964;31;33674;-58
2022/04/13 13:36:13;;;;;;;12.98;9.55;;;;;;;16.63;31.41;101022.31;5568166;31;33812;-58
2022/04/13 13:39:22;;;;;;;12.55;7.12;;;;;;;16.71;34.08;101009.94;5569670;32;34372;-58
2022/04/13 13:42:24;;;;;;;9.25;6.47;;;;;;;16.82;36.54;101013.22;5569391;32;33759;-58
2022/04/13 13:45:28;;;;;;;12.30;9.02;;;;;;;16.90;37.64;101004.38;5569322;32;33651;-58
2022/04/13 13:48:30;;;;;;;19.48;10.50;;;;;;;16.85;34.81;101001.78;5567732;32;33622;-58
2022/04/13 13:51:33;;;;;;;11.48;6.93;;;;;;;16.75;30.19;101005.53;5574072;31;33883;-58
2022/04/13 13:54:36;;;;;;;14.98;9.27;;;;;;;16.82;37.84;101003.22;5570516;31;33338;-58
2022/04/13 13:57:38;;;;;;;19.10;9.88;;;;;;;16.97;30.96;100999.34;5569013;31;34304;-58
2022/04/13 14:00:40;;;;;;;18.60;10.40;;;;;;;16.90;33.73;100990.84;5570951;31;33587;-58
2022/04/13 14:03:43;;;;;;;13.02;8.75;;;;;;;16.89;31.63;100989.25;5588905;31;34499;-58
2022/04/13 14:06:45;;;;;;;14.73;9.40;;;;;;;16.88;31.42;100984.94;5553253;31;33450;-58
2022/04/13 14:09:48;;;;;;;16.37;9.63;;;;;;;16.93;29.99;100984.81;5579067;31;33584;-58
2022/04/13 14:12:50;;;;;;;14.48;10.43;;;;;;;16.85;30.68;100978.25;5588490;31;33761;-58
2022/04/13 14:15:53;;;;;;;12.70;8.88;;;;;;;16.84;30.45;100973.91;5588587;31;33280;-58
2022/04/13 14:18:55;;;;;;;15.35;9.57;;;;;;;16.86;30.38;100979.84;5577587;31;33335;-58
2022/04/13 14:21:57;;;;;;;14.23;9.18;;;;;;;16.93;29.11;100971.28;5568441;31;33663;-58
2022/04/13 14:25:00;;;;;;;12.40;8.60;;;;;;;16.93;30.04;100975.91;5568915;31;34243;-58
2022/04/13 14:28:03;;;;;;;15.95;9.40;;;;;;;17.03;33.48;100975.66;5565499;32;33663;-58
2022/04/13 14:31:05;;;;;;;15.32;9.82;;;;;;;17.07;32.21;100982.84;5549433;32;34387;-58
2022/04/13 14:34:08;;;;;;;13.07;9.32;;;;;;;17.06;30.67;100975.81;5552762;32;33608;-58
2022/04/13 14:37:10;;;;;;;13.77;10.25;;;;;;;17.02;31.70;100971.31;5568322;32;34375;-57
2022/04/13 14:40:12;;;;;;;16.62;10.77;;;;;;;16.97;30.93;100971.47;5565465;32;33183;-57
2022/04/13 14:43:14;;;;;;;16.15;9.63;;;;;;;16.99;30.57;100964.62;5569179;32;34331;-58
